Time;durP1;ratioP1;P1;durP2;ratioP2;P2;SDS_P1;SDS_P2;PMS_P1;PMS_P2;Temp;Humidity;BMP_temperature;BMP_pressure;BME280_temperature;BME280_humidity;BME280_pressure;Samples;Min_cycle;Max_cycle;Signal;HPM_P1;HPM_P2
2021/05/08 00:01:21;;;;;;;19.38;12.52;;;5.40;99.90;;;5.19;100.00;101699.66;5055154;28;20075;-68
2021/05/08 00:03:47;;;;;;;19.20;12.82;;;5.40;99.90;;;5.00;100.00;101699.66;5071913;28;20043;-65
2021/05/08 00:06:13;;;;;;;18.73;13.20;;;5.30;99.90;;;5.09;100.00;101698.81;5054922;28;20055;-63
2021/05/08 00:08:39;;;;;;;21.70;13.93;;;5.40;99.90;;;5.15;100.00;101692.84;5055260;28;20530;-61
2021/05/08 00:11:06;;;;;;;24.55;15.18;;;5.30;99.90;;;5.33;100.00;101693.78;5071398;28;20049;-69
2021/05/08 00:13:32;;;;;;;23.27;13.77;;;5.30;99.90;;;5.39;100.00;101678.88;5071492;28;20029;-69
2021/05/08 00:15:58;;;;;;;23.05;14.05;;;5.30;99.90;;;5.39;100.00;101685.13;5071449;28;20086;-68
2021/05/08 00:18:24;;;;;;;21.92;14.40;;;5.30;99.90;;;5.24;100.00;101675.78;5054810;28;20111;-68
2021/05/08 00:20:50;;;;;;;23.60;13.25;;;5.30;99.90;;;5.38;100.00;101675.31;5038421;28;20037;-70
2021/05/08 00:23:16;;;;;;;23.83;14.38;;;5.20;99.90;;;5.33;100.00;101669.50;5072972;28;20036;-67
2021/05/08 00:25:42;;;;;;;20.75;13.82;;;5.20;99.90;;;5.32;100.00;101667.78;5072540;28;20090;-68
2021/05/08 00:28:08;;;;;;;20.88;14.80;;;5.20;99.90;;;5.30;100.00;101659.03;5072235;28;20037;-71
2021/05/08 00:30:34;;;;;;;20.35;14.35;;;5.20;99.90;;;5.28;100.00;101666.41;5071771;28;20044;-78
2021/05/08 00:33:00;;;;;;;22.73;13.68;;;5.20;99.90;;;5.20;100.00;101663.56;5055025;28;20059;-74
2021/05/08 00:35:26;;;;;;;26.75;15.35;;;5.10;99.90;;;5.28;100.00;101666.41;5054718;28;20402;-68
2021/05/08 00:37:51;;;;;;;21.38;14.35;;;5.10;99.90;;;5.26;100.00;101665.69;5072504;28;20044;-69
2021/05/08 00:40:17;;;;;;;29.95;15.52;;;5.00;99.90;;;5.20;100.00;101663.56;5071193;28;20035;-59
2021/05/08 00:42:43;;;;;;;21.80;14.05;;;5.10;99.90;;;5.16;100.00;101656.78;5072912;28;20417;-61
2021/05/08 00:45:09;;;;;;;22.42;15.13;;;5.10;99.90;;;5.13;100.00;101657.06;5072346;28;20490;-61
2021/05/08 00:47:50;;;;;;;18.63;13.05;;;5.10;99.90;;;5.13;100.00;101650.81;5058482;28;20082;-64
2021/05/08 00:50:20;;;;;;;22.90;13.20;;;5.00;99.90;;;5.07;100.00;101646.84;5076240;28;20074;-59
2021/05/08 00:52:46;;;;;;;21.00;13.30;;;4.90;99.90;;;5.10;100.00;101651.94;5075402;28;20044;-63
2021/05/08 00:55:13;;;;;;;20.83;13.95;;;4.90;99.90;;;5.04;100.00;101652.53;5075049;28;20033;-69
2021/05/08 00:57:39;;;;;;;22.77;16.13;;;4.80;99.90;;;4.98;100.00;101650.41;5076171;28;20487;-73
2021/05/08 01:00:08;;;;;;;20.40;13.48;;;4.90;99.90;;;4.96;100.00;101649.72;5075418;28;20024;-61
2021/05/08 01:02:34;;;;;;;22.42;13.88;;;4.90;99.90;;;5.12;100.00;101644.56;5076010;28;20059;-60
2021/05/08 01:05:00;;;;;;;20.75;14.32;;;4.90;99.90;;;5.15;100.00;101648.81;5074687;28;20078;-65
2021/05/08 01:07:27;;;;;;;19.20;13.50;;;4.90;99.90;;;5.12;100.00;101644.56;5074305;28;20029;-63
2021/05/08 01:09:53;;;;;;;19.23;13.55;;;4.90;99.90;;;5.03;100.00;101645.44;5057595;28;20052;-63
2021/05/08 01:12:19;;;;;;;23.45;13.85;;;5.00;99.90;;;5.15;100.00;101638.88;5058056;28;20044;-59
2021/05/08 01:14:45;;;;;;;22.90;15.02;;;5.00;99.90;;;5.28;100.00;101634.03;5074416;28;20043;-61
2021/05/08 01:17:11;;;;;;;19.83;13.98;;;5.00;99.90;;;5.26;100.00;101640.56;5057380;28;20123;-62
2021/05/08 01:19:37;;;;;;;23.05;14.30;;;5.10;99.90;;;5.24;100.00;101638.00;5040797;28;20044;-62
2021/05/08 01:22:03;;;;;;;19.95;14.13;;;5.10;99.90;;;5.35;100.00;101635.13;5057676;28;20037;-62
2021/05/08 01:24:29;;;;;;;19.08;14.73;;;5.10;99.90;;;5.39;100.00;101636.53;5057279;28;20146;-60
2021/05/08 01:26:55;;;;;;;23.50;14.43;;;5.10;99.90;;;5.30;100.00;101636.56;5057435;28;20043;-60
2021/05/08 01:29:21;;;;;;;21.70;14.00;;;5.10;99.90;;;5.27;100.00;101631.47;5073892;28;20032;-64
2021/05/08 01:31:47;;;;;;;25.92;12.88;;;5.20;99.90;;;5.14;100.00;101637.16;5074198;28;20028;-60
2021/05/08 01:34:13;;;;;;;22.13;13.30;;;5.20;99.90;;;5.08;100.00;101626.94;5073901;28;20102;-59
2021/05/08 01:36:39;;;;;;;18.45;13.93;;;5.20;99.90;;;5.09;100.00;101634.91;5073755;28;20475;-62
2021/05/08 01:39:06;;;;;;;19.23;13.50;;;5.20;99.90;;;5.09;100.00;101625.94;5073480;28;20045;-60
2021/05/08 01:41:32;;;;;;;17.35;12.43;;;5.10;99.90;;;5.09;100.00;101618.72;5057062;28;20810;-61
2021/05/08 01:43:57;;;;;;;16.70;12.68;;;5.00;99.90;;;5.10;100.00;101617.72;5073721;28;20051;-60
2021/05/08 01:46:23;;;;;;;23.10;13.20;;;5.00;99.90;;;5.01;100.00;101613.19;5056880;28;20024;-59
2021/05/08 01:48:49;;;;;;;16.80;12.20;;;5.00;99.90;;;5.12;100.00;101612.19;5073572;28;20036;-59
2021/05/08 01:51:15;;;;;;;19.73;12.35;;;5.00;99.90;;;5.09;100.00;101609.75;5073268;28;20037;-58
2021/05/08 01:53:41;;;;;;;21.45;13.45;;;5.00;99.90;;;5.10;100.00;101608.75;5073747;28;20041;-64
2021/05/08 01:56:08;;;;;;;16.15;11.38;;;5.00;99.90;;;5.11;100.00;101602.38;5073426;28;20086;-62
2021/05/08 01:58:37;;;;;;;16.98;12.40;;;5.00;99.90;;;5.17;99.90;101604.50;5072791;28;20025;-69
2021/05/08 02:01:04;;;;;;;18.75;11.57;;;4.90;99.90;;;5.17;99.24;101604.50;5056762;28;20388;-59
2021/05/08 02:03:30;;;;;;;19.33;10.65;;;4.90;99.90;;;5.13;99.55;101597.69;5074926;28;20085;-62
2021/05/08 02:05:56;;;;;;;18.38;11.70;;;5.00;99.90;;;5.15;99.67;101590.31;5056607;28;20036;-63
2021/05/08 02:08:22;;;;;;;18.38;11.73;;;5.00;99.90;;;5.16;98.99;101597.41;5056668;28;20471;-59
2021/05/08 02:10:48;;;;;;;22.08;12.27;;;5.00;99.90;;;5.13;98.97;101592.28;5072680;28;20060;-63
2021/05/08 02:13:15;;;;;;;15.70;11.60;;;4.90;99.90;;;5.13;98.90;101592.28;5056529;28;20126;-63
2021/05/08 02:15:41;;;;;;;15.25;10.48;;;5.00;99.90;;;5.07;98.82;101585.66;5073013;28;20040;-64
2021/05/08 02:18:08;;;;;;;12.75;10.55;;;4.90;99.90;;;5.04;99.18;101583.25;5073035;28;20103;-66
2021/05/08 02:20:38;;;;;;;15.45;11.18;;;5.00;99.90;;;5.08;98.54;101583.78;5039630;28;20406;-67
2021/05/08 02:23:07;;;;;;;19.52;11.32;;;4.90;99.90;;;5.10;98.72;101588.03;5073121;28;20051;-70
2021/05/08 02:25:33;;;;;;;16.42;10.63;;;4.80;99.90;;;5.09;98.70;101585.47;5072842;28;20036;-68
2021/05/08 02:27:59;;;;;;;14.77;10.60;;;4.90;99.90;;;5.05;98.94;101589.47;5073004;28;20086;-69
2021/05/08 02:30:34;;;;;;;15.60;11.20;;;4.90;99.90;;;5.07;98.55;101582.94;5074418;28;20469;-67
2021/05/08 02:33:02;;;;;;;17.67;10.00;;;4.90;99.90;;;5.11;98.24;101583.50;5072685;28;20120;-66
2021/05/08 02:35:29;;;;;;;19.75;10.38;;;4.90;99.90;;;5.00;98.52;101580.97;5072835;28;20609;-67
2021/05/08 02:37:56;;;;;;;15.88;10.40;;;4.90;99.90;;;4.95;98.38;101577.88;5056010;28;20422;-60
2021/05/08 02:40:28;;;;;;;15.43;10.40;;;4.90;99.90;;;5.00;98.15;101575.56;5072716;28;20037;-60
2021/05/08 02:42:54;;;;;;;15.23;10.68;;;4.80;99.90;;;4.91;98.36;101581.84;5072574;28;20055;-60
2021/05/08 02:45:20;;;;;;;18.48;11.55;;;4.80;99.90;;;4.83;98.49;101568.25;5072425;28;20490;-59
2021/05/08 02:47:48;;;;;;;16.20;10.63;;;4.80;99.90;;;4.78;99.42;101559.72;5073594;28;20063;-60
2021/05/08 02:50:16;;;;;;;14.63;10.57;;;4.80;99.90;;;4.75;99.67;101564.41;5055765;28;20032;-59
2021/05/08 02:52:43;;;;;;;15.55;11.38;;;4.80;99.90;;;4.79;99.36;101564.13;5072338;28;20085;-58
2021/05/08 02:55:10;;;;;;;13.40;10.25;;;4.70;99.90;;;4.73;99.53;101558.34;5055370;28;20036;-60
2021/05/08 02:57:37;;;;;;;14.15;10.32;;;4.70;99.90;;;4.71;99.36;101559.47;5072409;28;20031;-62
2021/05/08 03:00:06;;;;;;;18.45;11.30;;;4.60;99.90;;;4.76;99.12;101557.16;5072376;28;20040;-60
2021/05/08 03:02:32;;;;;;;19.05;11.85;;;4.60;99.90;;;4.72;99.39;101553.94;5055522;28;20036;-60
2021/05/08 03:04:58;;;;;;;17.27;11.45;;;4.50;99.90;;;4.68;99.46;101549.81;5055287;28;20039;-62
2021/05/08 03:07:24;;;;;;;18.85;12.82;;;4.50;99.90;;;4.66;99.61;101549.09;5072130;28;20024;-60
2021/05/08 03:09:50;;;;;;;16.35;11.32;;;4.50;99.90;;;4.66;99.50;101548.25;5073177;28;20040;-60
2021/05/08 03:12:15;;;;;;;19.33;12.80;;;4.40;99.90;;;4.64;99.97;101552.94;5072074;28;20086;-60
2021/05/08 03:14:41;;;;;;;20.40;11.50;;;4.40;99.90;;;4.60;99.94;101546.16;5072004;28;20029;-59
2021/05/08 03:17:07;;;;;;;18.90;13.00;;;4.30;99.90;;;4.56;100.00;101550.13;5073269;28;20087;-59
2021/05/08 03:19:33;;;;;;;23.00;13.55;;;4.30;99.90;;;4.50;100.00;101554.25;5055093;28;20102;-61
2021/05/08 03:21:59;;;;;;;18.52;12.23;;;4.20;99.90;;;4.39;100.00;101549.00;5055617;28;20376;-60
2021/05/08 03:24:24;;;;;;;19.52;13.18;;;4.20;99.90;;;4.36;100.00;101543.91;5073202;28;20036;-61
2021/05/08 03:26:50;;;;;;;22.15;12.35;;;4.10;99.90;;;4.30;100.00;101547.16;5055257;28;20089;-63
2021/05/08 03:29:16;;;;;;;19.00;13.05;;;4.00;99.90;;;4.29;100.00;101537.38;5055105;28;20039;-63
2021/05/08 03:31:42;;;;;;;18.60;12.70;;;4.00;99.90;;;4.14;100.00;101530.72;5073180;28;20548;-60
2021/05/08 03:34:08;;;;;;;19.95;12.98;;;4.00;99.90;;;4.22;100.00;101536.25;5072011;28;20037;-61
2021/05/08 03:36:34;;;;;;;17.55;12.80;;;4.00;99.90;;;4.21;100.00;101529.16;5071830;28;20111;-58
2021/05/08 03:38:59;;;;;;;17.02;12.18;;;3.90;99.90;;;4.14;100.00;101520.78;5055037;28;20033;-59
2021/05/08 03:41:25;;;;;;;19.60;12.57;;;3.90;99.90;;;4.22;100.00;101520.06;5071913;28;20183;-60
2021/05/08 03:43:51;;;;;;;17.98;11.82;;;4.00;99.90;;;4.20;100.00;101522.06;5072845;28;20060;-64
2021/05/08 03:46:17;;;;;;;22.65;13.85;;;3.90;99.90;;;4.10;100.00;101522.06;5071885;28;20032;-61
2021/05/08 03:48:43;;;;;;;16.13;11.50;;;3.90;99.90;;;3.99;100.00;101512.28;5072995;28;20029;-59
2021/05/08 03:51:08;;;;;;;24.58;13.00;;;3.90;99.90;;;4.06;100.00;101514.44;5054884;28;20418;-64
2021/05/08 03:53:34;;;;;;;16.80;12.45;;;4.00;99.90;;;4.05;100.00;101513.56;5071702;28;20471;-65
2021/05/08 03:56:01;;;;;;;16.92;12.35;;;3.90;99.90;;;4.11;100.00;101512.13;5071513;28;20120;-65
2021/05/08 03:58:29;;;;;;;19.30;12.40;;;3.90;99.90;;;4.12;100.00;101512.00;5038736;28;20060;-63
2021/05/08 04:00:56;;;;;;;16.80;11.82;;;3.90;99.90;;;4.14;100.00;101517.25;5071493;28;20106;-61
2021/05/08 04:03:22;;;;;;;18.63;13.10;;;3.90;99.90;;;4.27;100.00;101523.22;5071404;28;20048;-65
2021/05/08 04:05:48;;;;;;;15.60;11.60;;;4.00;99.90;;;4.33;100.00;101514.53;5071519;28;20044;-61
2021/05/08 04:08:14;;;;;;;19.33;12.68;;;4.10;99.90;;;4.43;100.00;101511.81;5054780;28;20043;-64
2021/05/08 04:10:40;;;;;;;20.58;13.73;;;4.20;99.90;;;4.54;100.00;101507.13;5071071;28;20052;-64
2021/05/08 04:13:06;;;;;;;17.63;11.52;;;4.20;99.90;;;4.74;100.00;101505.22;5071147;28;20089;-62
2021/05/08 04:15:32;;;;;;;19.05;11.32;;;4.40;99.90;;;4.80;100.00;101498.41;5055169;28;20036;-61
2021/05/08 04:17:58;;;;;;;22.05;11.38;;;4.40;99.90;;;4.95;99.38;101496.94;5072734;28;20086;-62
2021/05/08 04:20:24;;;;;;;17.77;11.77;;;4.50;99.90;;;4.99;98.90;101492.94;5072659;28;20493;-64
2021/05/08 04:22:50;;;;;;;16.38;11.20;;;4.60;99.90;;;5.14;98.81;101488.75;5076406;28;20542;-68
2021/05/08 04:25:15;;;;;;;15.73;11.52;;;4.70;99.90;;;5.24;97.45;101492.25;5058424;28;20447;-66
2021/05/08 04:27:41;;;;;;;15.45;11.25;;;4.90;99.90;;;5.42;96.74;101487.72;5058435;28;20037;-66
2021/05/08 04:30:08;;;;;;;16.15;11.23;;;5.00;99.90;;;5.64;96.08;101482.94;5075129;28;20040;-61
2021/05/08 04:32:34;;;;;;;18.33;11.98;;;5.10;99.90;;;5.70;94.67;101490.41;5075217;28;20119;-71
2021/05/08 04:35:00;;;;;;;16.13;10.32;;;5.20;99.90;;;5.75;94.37;101488.13;5059902;28;20047;-70
2021/05/08 04:37:26;;;;;;;15.13;10.57;;;5.40;99.90;;;5.84;93.95;101487.19;5077160;28;20103;-72
2021/05/08 04:39:51;;;;;;;13.52;10.77;;;5.50;99.90;;;6.02;93.42;101492.63;5077638;28;20047;-74
2021/05/08 04:42:17;;;;;;;15.63;9.75;;;5.60;99.90;;;6.16;92.48;101489.38;5077694;28;20060;-75
2021/05/08 04:44:43;;;;;;;15.60;10.10;;;5.70;99.90;;;6.29;91.71;101492.53;5059705;28;20036;-69
2021/05/08 04:47:12;;;;;;;16.60;9.40;;;5.70;99.90;;;6.35;92.15;101482.91;5075148;28;20068;-68
2021/05/08 04:49:39;;;;;;;13.02;9.48;;;6.00;99.90;;;6.49;91.46;101485.91;5058902;28;20150;-75
2021/05/08 04:52:05;;;;;;;14.43;9.90;;;6.10;99.90;;;6.53;90.45;101481.03;5058158;28;20025;-68
2021/05/08 04:54:31;;;;;;;12.23;8.77;;;6.20;99.90;;;6.74;89.63;101472.56;5074815;28;20068;-69
2021/05/08 04:56:57;;;;;;;14.15;9.50;;;6.30;99.90;;;6.75;89.31;101477.81;5058216;28;20056;-70
2021/05/08 04:59:23;;;;;;;12.65;9.02;;;6.40;99.90;;;6.98;89.10;101479.97;5058164;28;20475;-70
2021/05/08 05:01:49;;;;;;;14.50;9.18;;;6.50;99.90;;;7.15;88.27;101477.16;5075827;28;20487;-69
2021/05/08 05:04:14;;;;;;;12.88;9.30;;;6.60;99.90;;;7.30;87.94;101480.09;5074556;28;20040;-73
2021/05/08 05:06:40;;;;;;;11.98;9.30;;;6.80;99.90;;;7.46;86.76;101476.59;5057888;28;20037;-72
2021/05/08 05:09:06;;;;;;;14.32;9.93;;;7.00;99.90;;;7.55;86.08;101471.06;5057614;28;20040;-60
2021/05/08 05:11:32;;;;;;;13.65;8.75;;;7.20;99.90;;;7.67;85.11;101476.16;5057141;28;20067;-61
2021/05/08 05:13:58;;;;;;;15.93;9.15;;;7.30;99.90;;;7.78;84.42;101473.13;5074150;28;20041;-61
2021/05/08 05:16:23;;;;;;;9.68;7.15;;;7.40;99.90;;;7.83;84.38;101465.34;5057414;28;20507;-62
2021/05/08 05:18:49;;;;;;;12.60;7.78;;;7.50;99.90;;;7.94;83.57;101467.72;5074344;28;20448;-59
2021/05/08 05:21:15;;;;;;;11.68;8.52;;;7.60;99.90;;;8.04;83.52;101468.41;5074090;28;20104;-60
2021/05/08 05:23:41;;;;;;;12.32;8.38;;;7.60;99.90;;;8.17;83.22;101474.16;5074150;28;20164;-62
2021/05/08 05:26:07;;;;;;;12.48;8.13;;;7.80;99.90;;;8.19;82.35;101472.13;5074145;28;20104;-61
2021/05/08 05:28:33;;;;;;;10.77;7.20;;;7.90;99.90;;;8.63;80.88;101469.09;5075503;28;20487;-60
2021/05/08 05:30:59;;;;;;;10.95;7.68;;;8.10;99.90;;;8.87;80.12;101477.16;5040985;28;20029;-61
2021/05/08 05:33:25;;;;;;;12.88;7.15;;;8.30;99.90;;;9.02;79.23;101463.72;5074050;28;20441;-60
2021/05/08 05:35:56;;;;;;;10.98;7.40;;;8.50;99.90;;;9.17;78.68;101461.97;5057017;28;20483;-59
2021/05/08 05:38:24;;;;;;;13.25;8.70;;;8.70;99.90;;;9.38;78.21;101461.34;5075466;28;20036;-59
2021/05/08 05:40:52;;;;;;;9.18;7.15;;;8.90;99.90;;;9.59;76.83;101461.59;5073497;28;20036;-59
2021/05/08 05:43:19;;;;;;;11.10;7.05;;;9.10;99.90;;;9.57;75.37;101455.50;5073653;28;20135;-60
2021/05/08 05:45:44;;;;;;;9.30;6.22;;;9.30;99.90;;;9.74;75.34;101448.91;5056946;28;20081;-60
2021/05/08 05:48:10;;;;;;;10.02;8.00;;;9.30;99.90;;;9.92;74.28;101445.06;5041041;28;20032;-59
2021/05/08 05:50:39;;;;;;;9.00;6.88;;;9.40;99.90;;;9.75;74.15;101450.59;5074441;28;20024;-65
2021/05/08 05:53:05;;;;;;;8.95;6.80;;;9.60;99.90;;;9.48;74.31;101442.94;5073887;28;20093;-62
2021/05/08 05:55:31;;;;;;;9.95;6.85;;;9.40;99.60;;;9.64;73.83;101439.28;5073916;28;20040;-60
2021/05/08 05:57:57;;;;;;;8.35;6.97;;;9.40;99.90;;;9.36;74.36;101434.38;5073937;28;20461;-60
2021/05/08 06:00:23;;;;;;;8.65;6.57;;;9.30;99.80;;;9.29;75.01;101421.66;5057031;28;20563;-59
2021/05/08 06:02:49;;;;;;;9.30;6.47;;;9.10;99.90;;;9.43;74.50;101423.63;5057270;28;20112;-60
2021/05/08 06:05:15;;;;;;;9.98;6.55;;;9.10;99.90;;;9.37;74.98;101424.34;5056912;28;20024;-64
2021/05/08 06:07:41;;;;;;;11.10;6.35;;;9.30;99.90;;;9.46;74.35;101420.56;5057208;28;20112;-65
2021/05/08 06:10:10;;;;;;;9.15;6.38;;;9.20;99.90;;;9.58;73.90;101415.56;5074114;28;20044;-59
2021/05/08 06:12:36;;;;;;;8.35;6.15;;;9.20;99.70;;;9.52;74.84;101417.13;5056578;28;20033;-63
2021/05/08 06:15:04;;;;;;;9.88;6.43;;;9.30;99.90;;;9.49;74.34;101414.75;5073062;28;20079;-61
2021/05/08 06:17:30;;;;;;;7.55;6.03;;;9.30;99.70;;;9.44;74.37;101406.31;5072910;28;20441;-59
2021/05/08 06:19:56;;;;;;;9.20;6.78;;;9.30;99.90;;;9.74;75.23;101404.56;5074057;28;20115;-61
2021/05/08 06:22:22;;;;;;;8.40;7.10;;;9.40;99.90;;;9.93;74.55;101389.66;5073042;28;20463;-60
2021/05/08 06:24:47;;;;;;;8.45;6.38;;;9.50;99.90;;;10.04;74.87;101389.22;5073931;28;20396;-63
2021/05/08 06:27:13;;;;;;;9.13;6.28;;;9.60;99.90;;;10.30;73.84;101396.97;5056072;28;20096;-62
2021/05/08 06:29:39;;;;;;;9.48;6.45;;;9.80;99.90;;;10.25;72.98;101392.09;5072654;28;20020;-61
2021/05/08 06:32:05;;;;;;;8.18;6.28;;;9.90;99.50;;;10.42;73.01;101377.28;5072859;28;20032;-62
2021/05/08 06:34:31;;;;;;;9.50;6.57;;;10.00;99.50;;;10.09;73.01;101381.34;5056061;28;20376;-60
2021/05/08 06:37:00;;;;;;;9.25;6.40;;;10.10;99.10;;;10.08;73.17;101379.63;5073888;28;20020;-60
2021/05/08 06:39:26;;;;;;;8.13;6.35;;;10.10;98.80;;;9.95;73.22;101369.38;5072403;28;20036;-64
2021/05/08 06:41:52;;;;;;;12.35;8.38;;;9.90;98.90;;;9.77;73.61;101377.88;5056407;28;20131;-65
2021/05/08 06:44:19;;;;;;;10.10;6.30;;;9.90;98.90;;;10.00;74.06;101379.72;5055922;28;20039;-70
2021/05/08 06:46:45;;;;;;;9.32;6.32;;;9.90;99.30;;;9.95;74.57;101368.53;5073139;28;20036;-72
2021/05/08 06:49:11;;;;;;;6.88;5.70;;;10.00;99.40;;;10.45;73.23;101376.09;5056260;28;20082;-60
2021/05/08 06:51:38;;;;;;;10.13;6.30;;;10.10;99.10;;;10.68;72.09;101370.56;5072582;28;20378;-61
2021/05/08 06:54:05;;;;;;;8.45;6.18;;;10.30;99.00;;;11.02;70.92;101362.63;5073788;28;20036;-67
2021/05/08 06:56:31;;;;;;;9.45;6.47;;;10.60;98.60;;;10.81;70.42;101365.28;5072971;28;20396;-76
2021/05/08 06:58:58;;;;;;;10.13;5.68;;;10.70;98.00;;;11.14;69.54;101366.56;5089847;28;20040;-66
2021/05/08 07:01:24;;;;;;;9.02;6.53;;;10.70;97.90;;;11.25;68.75;101363.34;5073114;28;20033;-65
2021/05/08 07:03:50;;;;;;;9.73;6.85;;;10.90;97.60;;;11.31;68.21;101366.31;5073282;28;20032;-64
2021/05/08 07:06:16;;;;;;;13.00;6.00;;;11.00;97.30;;;11.43;67.55;101359.31;5057057;28;20055;-61
2021/05/08 07:08:41;;;;;;;9.77;5.93;;;11.10;96.80;;;11.46;66.41;101348.03;5073393;28;20032;-62
2021/05/08 07:11:08;;;;;;;7.88;5.85;;;11.20;96.40;;;11.33;65.80;101351.47;5055568;28;20375;-66
2021/05/08 07:13:33;;;;;;;7.25;6.07;;;11.20;95.90;;;11.74;64.21;101351.66;5073199;28;20529;-60
2021/05/08 07:15:59;;;;;;;10.85;6.45;;;11.40;96.00;;;11.98;62.74;101348.56;5055255;28;20097;-60
2021/05/08 07:18:25;;;;;;;7.00;5.18;;;11.60;95.50;;;11.74;62.36;101346.19;5071849;28;20479;-62
2021/05/08 07:20:52;;;;;;;6.45;4.88;;;11.60;95.10;;;11.68;62.00;101352.44;5072038;28;20041;-65
2021/05/08 07:23:18;;;;;;;9.52;5.90;;;11.60;94.90;;;11.70;62.64;101338.63;5073254;28;20060;-61
2021/05/08 07:25:44;;;;;;;12.30;5.75;;;11.60;95.10;;;11.73;62.54;101340.97;5071768;28;20403;-61
2021/05/08 07:28:21;;;;;;;6.85;5.00;;;11.60;95.10;;;11.44;63.52;101336.47;5055107;28;20029;-62
2021/05/08 07:30:49;;;;;;;10.88;5.97;;;11.40;95.30;;;11.44;63.72;101340.03;5055261;28;20025;-64
2021/05/08 07:33:17;;;;;;;10.65;4.97;;;11.30;95.50;;;11.68;63.73;101335.25;5071999;28;20115;-64
2021/05/08 07:35:45;;;;;;;7.30;5.70;;;11.30;95.60;;;11.49;63.34;101336.75;5072980;28;20044;-61
2021/05/08 07:38:11;;;;;;;9.05;5.25;;;11.40;95.40;;;11.43;63.93;101332.06;5071779;28;20031;-63
2021/05/08 07:40:39;;;;;;;7.15;5.05;;;11.40;95.30;;;11.47;63.85;101333.38;5055257;28;20062;-61
2021/05/08 07:43:06;;;;;;;7.80;5.85;;;11.30;95.50;;;11.57;63.25;101331.16;5055301;28;20040;-60
2021/05/08 07:45:32;;;;;;;7.75;5.68;;;11.40;95.50;;;11.63;63.08;101331.22;5071663;28;20040;-61
2021/05/08 07:47:59;;;;;;;6.65;5.03;;;11.40;95.50;;;11.80;62.41;101323.66;5055021;28;20036;-61
2021/05/08 07:50:27;;;;;;;10.05;4.70;;;11.50;95.30;;;11.59;62.53;101318.19;5071734;28;20040;-68
2021/05/08 07:52:54;;;;;;;8.05;5.05;;;11.60;95.10;;;11.46;62.44;101337.97;5071841;28;20028;-61
2021/05/08 07:55:20;;;;;;;6.68;5.07;;;11.50;94.90;;;11.71;62.51;101324.78;5073020;28;20037;-67
2021/05/08 07:57:46;;;;;;;6.82;4.43;;;11.50;95.10;;;11.64;62.75;101326.59;5059313;28;20040;-61
2021/05/08 08:00:14;;;;;;;8.40;4.97;;;11.50;95.10;;;11.48;63.55;101326.88;5059169;28;20371;-61
2021/05/08 08:02:40;;;;;;;6.38;4.35;;;11.50;95.10;;;11.48;63.83;101318.69;5075892;28;20039;-61
2021/05/08 08:05:07;;;;;;;7.45;4.93;;;11.50;95.30;;;11.51;63.30;101307.41;5077113;28;20406;-62
2021/05/08 08:07:34;;;;;;;6.30;4.28;;;11.40;95.30;;;11.54;63.74;101312.44;5076546;28;20029;-62
2021/05/08 08:10:00;;;;;;;6.63;5.20;;;11.40;95.50;;;11.79;63.22;101315.66;5058708;28;20390;-63
2021/05/08 08:12:26;;;;;;;7.68;4.85;;;11.50;95.50;;;11.71;63.61;101313.03;5075332;28;20076;-62
2021/05/08 08:14:52;;;;;;;5.68;4.15;;;11.60;95.40;;;11.98;63.34;101313.09;5076472;28;20052;-62
2021/05/08 08:17:18;;;;;;;5.47;4.50;;;11.70;95.60;;;12.46;61.63;101302.28;5076439;28;20024;-62
2021/05/08 08:19:47;;;;;;;5.53;4.50;;;12.10;95.40;;;12.50;61.30;101298.13;5075088;28;20041;-61
2021/05/08 08:22:14;;;;;;;7.78;4.82;;;12.20;95.10;;;12.53;60.98;101294.09;5058549;28;20426;-66
2021/05/08 08:24:40;;;;;;;5.75;4.53;;;12.40;94.70;;;12.59;60.97;101302.34;5075161;28;20033;-64
2021/05/08 08:27:06;;;;;;;5.95;4.65;;;12.50;94.60;;;13.03;60.11;101290.97;5074981;28;20085;-64
2021/05/08 08:29:32;;;;;;;7.88;5.30;;;12.60;94.60;;;12.96;60.46;101297.47;5076207;28;20060;-63
2021/05/08 08:31:58;;;;;;;8.18;4.70;;;12.80;94.60;;;13.14;59.76;101289.56;5058534;28;20407;-66
2021/05/08 08:34:24;;;;;;;10.10;5.70;;;13.00;94.40;;;13.26;58.93;101287.91;5076432;28;20040;-67
2021/05/08 08:36:49;;;;;;;7.32;5.53;;;13.00;94.30;;;13.40;58.22;101275.97;5076319;28;20108;-65
2021/05/08 08:39:15;;;;;;;9.60;5.65;;;13.20;94.00;;;13.62;57.67;101275.75;5074708;28;20033;-62
2021/05/08 08:41:41;;;;;;;8.30;4.68;;;13.30;93.90;;;13.63;57.49;101277.44;5074867;28;20024;-60
2021/05/08 08:44:10;;;;;;;10.02;5.07;;;13.40;93.70;;;13.75;57.50;101270.28;5074882;28;20032;-62
2021/05/08 08:46:44;;;;;;;8.00;5.18;;;13.40;93.60;;;13.79;56.55;101272.38;5075306;28;20547;-61
2021/05/08 08:49:11;;;;;;;9.40;5.13;;;13.50;93.60;;;13.92;56.33;101271.53;5058217;28;20045;-63
2021/05/08 08:51:40;;;;;;;7.13;4.75;;;13.70;93.30;;;13.95;55.76;101276.59;5075224;28;20028;-59
2021/05/08 08:54:06;;;;;;;6.55;5.13;;;13.80;93.00;;;13.78;56.27;101280.78;5058049;28;20069;-61
2021/05/08 08:56:43;;;;;;;7.93;4.80;;;13.70;92.90;;;14.06;56.25;101273.22;5074728;28;20035;-60
2021/05/08 09:01:50;;;;;;;11.20;5.53;;;13.90;93.10;;;14.49;55.27;101278.19;5075631;28;20499;-60
2021/05/08 09:04:17;;;;;;;8.02;5.13;;;14.00;93.10;;;14.40;55.36;101269.38;5075376;28;20046;-76
2021/05/08 09:06:46;;;;;;;8.38;5.18;;;14.10;92.90;;;14.50;54.77;101271.66;5076441;28;20486;-63
2021/05/08 09:09:13;;;;;;;12.40;4.72;;;14.20;93.00;;;14.32;54.66;101272.31;5075044;28;20032;-61
2021/05/08 09:11:55;;;;;;;7.05;4.60;;;14.20;92.50;;;14.21;55.44;101252.97;5074092;28;20174;-64
2021/05/08 09:14:35;;;;;;;7.50;4.53;;;14.10;92.50;;;14.15;56.92;101246.44;5057843;28;20045;-65
2021/05/08 09:17:22;;;;;;;8.63;4.13;;;14.10;93.30;;;14.17;55.75;101258.88;5073781;28;20459;-71
2021/05/08 09:20:03;;;;;;;8.00;4.03;;;14.10;92.70;;;13.95;56.81;101248.38;5060059;28;20044;-72
2021/05/08 09:22:29;;;;;;;8.20;4.82;;;14.00;92.90;;;14.15;56.29;101249.19;5076106;28;20029;-79
2021/05/08 09:25:14;;;;;;;7.60;5.43;;;14.00;93.00;;;14.35;56.37;101239.00;5074773;28;20074;-72
2021/05/08 09:27:49;;;;;;;7.05;5.40;;;14.00;93.60;;;14.44;56.61;101247.88;5073968;28;20129;-65
2021/05/08 09:30:30;;;;;;;7.60;5.18;;;14.20;93.40;;;14.25;57.77;101232.31;5073306;28;20060;-67
2021/05/08 09:32:56;;;;;;;5.50;4.35;;;14.20;93.50;;;14.27;57.64;101233.78;5056247;28;20029;-64
2021/05/08 09:35:25;;;;;;;6.38;4.50;;;14.20;93.40;;;14.37;58.51;101219.63;5072537;28;20590;-62
2021/05/08 09:38:12;;;;;;;6.63;4.40;;;14.20;93.80;;;14.24;59.54;101222.41;5073798;28;20497;-61
2021/05/08 09:40:41;;;;;;;7.55;4.10;;;14.20;94.10;;;14.07;60.04;101217.41;5075179;28;20032;-64
2021/05/08 09:43:20;;;;;;;9.73;3.90;;;14.10;94.20;;;13.84;62.67;101213.44;5074275;28;20031;-64
2021/05/08 09:45:50;;;;;;;6.63;4.38;;;13.90;95.20;;;13.37;65.09;101205.25;5073747;28;20035;-65
2021/05/08 09:48:23;;;;;;;4.90;4.00;;;13.60;95.70;;;13.15;67.78;101213.88;5072577;28;20032;-65
2021/05/08 09:50:50;;;;;;;9.38;4.18;;;13.30;96.60;;;12.86;69.74;101206.84;5072508;28;20029;-67
2021/05/08 09:53:32;;;;;;;6.38;4.30;;;13.10;97.60;;;12.93;72.10;101204.97;5055852;28;20116;-62
2021/05/08 09:55:58;;;;;;;12.68;4.80;;;13.00;98.50;;;12.76;71.26;101211.84;5073518;28;20123;-62
2021/05/08 09:58:26;;;;;;;6.60;4.00;;;12.90;98.40;;;12.57;71.55;101203.38;5073641;28;20059;-64
2021/05/08 10:00:53;;;;;;;7.88;4.85;;;12.80;98.90;;;12.58;74.19;101191.44;5072360;28;20032;-67
2021/05/08 10:03:23;;;;;;;9.57;4.53;;;12.70;99.80;;;12.62;74.66;101198.16;5072483;28;20031;-66
2021/05/08 10:06:02;;;;;;;5.68;3.75;;;12.60;99.90;;;12.28;74.93;101190.06;5055794;28;20067;-68
2021/05/08 10:08:28;;;;;;;6.63;4.90;;;12.40;99.90;;;12.26;75.56;101186.69;5057179;28;20033;-68
2021/05/08 10:10:54;;;;;;;5.70;3.97;;;12.30;99.90;;;12.32;77.38;101183.13;5035237;28;609963;-66
2021/05/08 10:13:21;;;;;;;9.93;4.25;;;12.20;99.90;;;12.24;78.21;101177.84;5075640;28;20078;-63
2021/05/08 10:15:48;;;;;;;5.72;3.70;;;12.30;99.90;;;12.33;77.30;101172.00;5042475;28;20032;-62